Time;durP1;ratioP1;P1;durP2;ratioP2;P2;SDS_P1;SDS_P2;PMS_P1;PMS_P2;Temp;Humidity;BMP_temperature;BMP_pressure;BME280_temperature;BME280_humidity;BME280_pressure;Samples;Min_cycle;Max_cycle;Signal;HPM_P1;HPM_P2
2022/11/22 04:02:33;;;;;;;0.47;0.47;;;15.60;50.70;;;;;;4825662;29;45563;-64
2022/11/22 04:04:58;;;;;;;0.82;0.60;;;15.60;50.70;;;;;;4822194;29;44935;-63
2022/11/22 04:07:24;;;;;;;1.00;0.90;;;15.60;50.70;;;;;;4825721;29;45573;-64
2022/11/22 04:09:49;;;;;;;0.80;0.70;;;15.60;50.60;;;;;;4843081;29;44696;-64
2022/11/22 04:12:15;;;;;;;1.05;0.75;;;15.60;50.60;;;;;;4840684;29;45593;-63
2022/11/22 04:17:40;;;;;;;1.25;0.90;;;15.60;50.70;;;;;;4837846;29;47132;-65
2022/11/22 04:23:02;;;;;;;1.10;0.60;;;15.60;50.70;;;;;;4829510;29;45562;-63
2022/11/22 04:25:29;;;;;;;1.15;0.60;;;15.60;50.80;;;;;;4823849;29;45654;-63
2022/11/22 04:27:55;;;;;;;0.80;0.60;;;15.60;50.70;;;;;;4827625;29;46451;-64
2022/11/22 04:30:20;;;;;;;1.08;0.70;;;15.60;50.70;;;;;;4826341;29;45363;-62
2022/11/22 04:32:46;;;;;;;0.70;0.60;;;15.60;50.70;;;;;;4809931;29;45832;-64
2022/11/22 04:35:13;;;;;;;0.90;0.60;;;15.50;50.70;;;;;;4842424;29;45453;-63
2022/11/22 04:37:39;;;;;;;1.00;0.70;;;15.60;50.70;;;;;;4840741;29;45106;-63
2022/11/22 04:40:05;;;;;;;0.90;0.60;;;15.60;50.70;;;;;;4839899;29;45360;-63
2022/11/22 04:45:15;;;;;;;0.73;0.70;;;15.50;50.70;;;;;;4842617;29;45225;-64
2022/11/22 04:47:58;;;;;;;0.52;0.52;;;15.50;50.70;;;;;;4823860;29;45517;-63
2022/11/22 04:53:08;;;;;;;0.80;0.60;;;15.50;50.90;;;;;;4843746;29;45527;-63
2022/11/22 04:55:34;;;;;;;0.73;0.60;;;15.50;50.80;;;;;;4827804;29;45403;-63
2022/11/22 04:57:59;;;;;;;1.05;0.60;;;15.50;50.70;;;;;;4824357;29;45988;-62
2022/11/22 05:00:26;;;;;;;1.45;0.60;;;15.50;50.70;;;;;;4830901;29;45001;-63
2022/11/22 05:02:52;;;;;;;0.65;0.60;;;15.50;50.70;;;;;;4841249;29;45495;-63
2022/11/22 05:05:17;;;;;;;1.48;0.60;;;15.50;50.70;;;;;;4829764;29;45422;-63
2022/11/22 05:07:43;;;;;;;1.05;0.70;;;15.50;50.70;;;;;;4841387;29;46186;-62
2022/11/22 05:10:08;;;;;;;0.90;0.63;;;15.50;50.70;;;;;;4841864;29;45185;-63
2022/11/22 05:12:34;;;;;;;0.88;0.80;;;15.50;50.70;;;;;;4825199;29;45594;-64
2022/11/22 05:14:59;;;;;;;0.77;0.63;;;15.50;50.70;;;;;;4842449;29;45375;-65
2022/11/22 05:17:25;;;;;;;1.25;0.70;;;15.40;50.60;;;;;;4837920;29;46215;-63
2022/11/22 05:19:50;;;;;;;0.85;0.55;;;15.40;50.70;;;;;;4836763;29;45258;-64
2022/11/22 05:22:16;;;;;;;1.23;0.70;;;15.40;50.70;;;;;;4825149;29;45356;-64
2022/11/22 05:24:41;;;;;;;1.10;0.60;;;15.40;50.70;;;;;;4841610;29;45810;-64
2022/11/22 05:27:07;;;;;;;0.70;0.68;;;15.40;50.70;;;;;;4838649;29;45297;-62
2022/11/22 05:29:33;;;;;;;0.75;0.55;;;15.40;50.70;;;;;;4837012;29;45496;-65
2022/11/22 05:31:58;;;;;;;0.55;0.50;;;15.40;50.70;;;;;;4825457;29;45107;-62
2022/11/22 05:34:24;;;;;;;1.20;0.70;;;15.40;50.70;;;;;;4827922;29;45479;-63
2022/11/22 05:36:50;;;;;;;1.35;0.68;;;15.40;50.80;;;;;;4802057;29;47011;-63
2022/11/22 05:39:15;;;;;;;0.65;0.60;;;15.40;50.80;;;;;;4839128;29;45370;-63
2022/11/22 05:41:54;;;;;;;0.57;0.55;;;15.40;50.80;;;;;;4842945;29;45402;-64
2022/11/22 05:44:21;;;;;;;0.70;0.70;;;15.40;50.80;;;;;;4813547;29;45514;-63
2022/11/22 05:46:46;;;;;;;0.60;0.50;;;15.40;50.80;;;;;;4824139;29;46180;-63
2022/11/22 05:49:12;;;;;;;1.30;0.65;;;15.40;50.80;;;;;;4825136;29;44725;-63
2022/11/22 05:51:37;;;;;;;0.95;0.70;;;15.40;50.80;;;;;;4841612;29;45310;-63
2022/11/22 05:54:03;;;;;;;1.08;0.70;;;15.30;50.80;;;;;;4822722;29;44899;-63
2022/11/22 05:56:29;;;;;;;0.80;0.70;;;15.30;50.80;;;;;;4814286;29;45742;-62
2022/11/22 05:58:54;;;;;;;0.90;0.77;;;15.30;50.80;;;;;;4840992;29;45692;-63
2022/11/22 06:01:21;;;;;;;0.73;0.63;;;15.30;50.80;;;;;;4839478;29;45607;-63
2022/11/22 06:03:47;;;;;;;1.02;0.70;;;15.30;50.80;;;;;;4825078;29;45549;-63
2022/11/22 06:06:13;;;;;;;0.93;0.57;;;15.30;50.80;;;;;;4826782;29;44985;-62
2022/11/22 06:08:40;;;;;;;1.10;0.70;;;15.30;50.80;;;;;;4827181;29;44952;-63
2022/11/22 06:11:09;;;;;;;0.70;0.60;;;15.30;50.80;;;;;;4841442;29;45904;-62
2022/11/22 06:13:35;;;;;;;1.13;0.88;;;15.30;50.80;;;;;;4831264;29;45587;-64
2022/11/22 06:16:02;;;;;;;1.17;0.47;;;15.30;50.80;;;;;;4833764;29;46126;-63
2022/11/22 06:18:27;;;;;;;1.05;0.60;;;15.30;50.80;;;;;;4841855;29;45290;-63
2022/11/22 06:21:00;;;;;;;0.88;0.60;;;15.30;50.80;;;;;;4823729;29;45003;-62
2022/11/22 06:23:25;;;;;;;0.90;0.68;;;15.30;50.80;;;;;;4822968;29;45503;-66
2022/11/22 06:25:58;;;;;;;0.77;0.65;;;15.30;50.90;;;;;;4834260;29;46694;-64
2022/11/22 06:28:24;;;;;;;0.75;0.55;;;15.30;50.90;;;;;;4802593;29;46464;-62
2022/11/22 06:30:49;;;;;;;1.23;0.68;;;15.30;50.90;;;;;;4838301;29;45510;-61
2022/11/22 06:33:15;;;;;;;1.30;0.57;;;15.30;50.90;;;;;;4824314;29;45594;-60
2022/11/22 06:35:41;;;;;;;0.82;0.55;;;15.20;50.80;;;;;;4838668;29;45363;-65
2022/11/22 06:38:06;;;;;;;1.75;0.80;;;15.20;50.80;;;;;;4829094;29;44868;-62
2022/11/22 06:40:32;;;;;;;0.90;0.63;;;15.20;50.90;;;;;;4838936;29;45054;-62
2022/11/22 06:42:57;;;;;;;0.88;0.68;;;15.20;50.90;;;;;;4841919;29;45283;-63
2022/11/22 06:45:23;;;;;;;0.63;0.60;;;15.20;50.80;;;;;;4842818;29;46079;-63
2022/11/22 06:47:48;;;;;;;0.90;0.60;;;15.20;50.80;;;;;;4826406;29;44875;-62
2022/11/22 06:50:14;;;;;;;0.95;0.80;;;15.20;50.80;;;;;;4843878;29;45305;-62
2022/11/22 06:52:40;;;;;;;0.70;0.60;;;15.20;50.80;;;;;;4844138;29;44961;-63
2022/11/22 06:55:06;;;;;;;0.45;0.45;;;15.20;50.80;;;;;;4814726;29;47084;-62
2022/11/22 06:57:31;;;;;;;0.75;0.65;;;15.20;50.90;;;;;;4819467;29;45173;-65
2022/11/22 06:59:57;;;;;;;0.80;0.40;;;15.20;50.90;;;;;;4813422;29;45275;-62
2022/11/22 07:02:22;;;;;;;1.17;0.90;;;15.20;50.90;;;;;;4835374;29;44841;-63
2022/11/22 07:04:48;;;;;;;0.85;0.80;;;15.20;50.80;;;;;;4836109;29;45620;-62
2022/11/22 07:07:14;;;;;;;1.00;0.80;;;15.20;50.80;;;;;;4823132;29;45430;-63
2022/11/22 07:09:39;;;;;;;0.52;0.50;;;15.20;50.90;;;;;;4837853;29;45122;-63
2022/11/22 07:12:05;;;;;;;1.13;0.90;;;15.20;50.80;;;;;;4816657;29;45409;-63
2022/11/22 07:14:31;;;;;;;3.08;1.75;;;15.30;50.50;;;;;;4791629;29;45687;-61
2022/11/22 07:16:56;;;;;;;3.97;2.10;;;15.40;49.40;;;;;;4836650;29;45447;-63
2022/11/22 07:19:22;;;;;;;4.23;1.87;;;15.40;48.80;;;;;;4840731;29;45147;-62
2022/11/22 07:21:48;;;;;;;3.90;2.27;;;15.40;48.60;;;;;;4808354;29;46853;-65
2022/11/22 07:24:14;;;;;;;4.43;2.00;;;15.40;48.40;;;;;;4821626;29;45954;-65
2022/11/22 07:26:39;;;;;;;3.63;2.15;;;15.40;48.30;;;;;;4843964;29;45407;-65
2022/11/22 07:29:05;;;;;;;3.50;1.90;;;15.40;48.10;;;;;;4845227;29;45152;-66
2022/11/22 07:31:30;;;;;;;3.70;2.10;;;15.40;48.10;;;;;;4840746;29;45907;-64
2022/11/22 07:33:57;;;;;;;2.58;2.15;;;15.40;47.90;;;;;;4826392;29;45626;-64
2022/11/22 07:36:22;;;;;;;4.27;2.40;;;15.30;47.80;;;;;;4842416;29;44951;-64
2022/11/22 07:38:48;;;;;;;5.43;2.30;;;15.40;47.70;;;;;;4824114;29;45260;-67
2022/11/22 07:41:14;;;;;;;3.27;2.07;;;15.40;47.70;;;;;;4821870;29;45786;-64
2022/11/22 07:43:40;;;;;;;4.18;1.88;;;15.30;47.60;;;;;;4840018;29;46115;-63
2022/11/22 07:46:07;;;;;;;3.63;2.00;;;15.30;47.70;;;;;;4836263;29;44959;-63
2022/11/22 07:48:33;;;;;;;4.95;2.08;;;15.40;47.80;;;;;;4823547;29;45066;-64
2022/11/22 07:51:08;;;;;;;4.03;2.07;;;15.50;48.10;;;;;;4826088;29;44977;-64
2022/11/22 07:53:33;;;;;;;2.50;1.60;;;15.60;48.00;;;;;;4845340;29;46139;-66
2022/11/22 07:56:03;;;;;;;3.07;1.60;;;15.80;47.90;;;;;;4839942;29;45581;-64
2022/11/22 07:58:28;;;;;;;2.10;1.50;;;16.00;47.60;;;;;;4824815;29;44956;-67
2022/11/22 08:00:54;;;;;;;4.10;1.83;;;16.10;47.40;;;;;;4838605;29;45579;-65
2022/11/22 08:03:19;;;;;;;2.80;1.48;;;16.30;47.20;;;;;;4823499;29;47054;-65
2022/11/22 08:05:45;;;;;;;2.40;1.60;;;16.50;47.00;;;;;;4808229;29;45199;-65
2022/11/22 08:08:10;;;;;;;4.33;1.57;;;16.70;46.90;;;;;;4840631;29;45456;-64
2022/11/22 08:10:36;;;;;;;2.23;1.50;;;16.90;46.70;;;;;;4827792;29;45531;-65
2022/11/22 08:13:01;;;;;;;2.40;1.53;;;17.00;46.50;;;;;;4819734;29;45235;-63
2022/11/22 08:15:27;;;;;;;2.72;1.50;;;17.20;46.40;;;;;;4823626;29;45467;-64
2022/11/22 08:17:52;;;;;;;2.33;1.40;;;17.40;46.20;;;;;;4839914;29;45212;-63
2022/11/22 08:20:18;;;;;;;1.95;1.35;;;17.50;46.00;;;;;;4808862;29;45603;-66
2022/11/22 08:22:43;;;;;;;3.20;1.30;;;17.70;46.50;;;;;;4818830;29;45998;-66
2022/11/22 08:25:11;;;;;;;2.33;1.47;;;17.80;45.70;;;;;;4841176;29;45647;-66
2022/11/22 08:27:38;;;;;;;1.90;1.27;;;18.00;45.60;;;;;;4822669;29;45540;-63
2022/11/22 08:30:04;;;;;;;2.28;1.27;;;18.10;45.30;;;;;;4837752;29;45492;-63
2022/11/22 08:32:30;;;;;;;1.95;1.27;;;18.20;45.20;;;;;;4844359;29;45991;-65
2022/11/22 08:34:55;;;;;;;2.60;1.27;;;18.30;45.10;;;;;;4832145;29;45002;-62
2022/11/22 08:37:21;;;;;;;2.20;1.20;;;18.30;45.10;;;;;;4827005;29;45527;-64
2022/11/22 08:39:46;;;;;;;2.93;1.47;;;18.40;45.00;;;;;;4836595;29;46390;-65
2022/11/22 08:42:12;;;;;;;2.40;1.10;;;18.50;45.10;;;;;;4811576;29;45245;-63
2022/11/22 08:44:37;;;;;;;2.67;1.40;;;18.60;44.90;;;;;;4848835;29;45596;-65
2022/11/22 08:47:03;;;;;;;1.38;0.95;;;18.70;44.80;;;;;;4834230;29;45567;-64
2022/11/22 08:49:28;;;;;;;1.83;1.20;;;18.90;44.70;;;;;;4824044;29;45756;-66
2022/11/22 08:51:54;;;;;;;1.77;1.27;;;19.00;44.60;;;;;;4824071;29;45891;-63
2022/11/22 08:54:19;;;;;;;1.50;1.10;;;19.20;44.40;;;;;;4828736;29;44905;-63
2022/11/22 08:56:45;;;;;;;1.90;1.10;;;19.30;44.30;;;;;;4834805;29;45411;-65
2022/11/22 08:59:11;;;;;;;2.23;1.10;;;19.50;44.10;;;;;;4809343;29;45498;-64
2022/11/22 09:01:36;;;;;;;2.10;1.00;;;19.60;44.00;;;;;;4840445;29;46189;-65
2022/11/22 09:04:02;;;;;;;1.50;1.07;;;19.70;43.80;;;;;;4825228;29;45716;-67
2022/11/22 09:06:27;;;;;;;1.67;1.10;;;19.90;43.70;;;;;;4815484;29;45357;-63
2022/11/22 09:08:53;;;;;;;1.17;0.90;;;20.00;43.60;;;;;;4809848;29;45480;-63
2022/11/22 09:11:19;;;;;;;1.25;1.00;;;20.10;43.40;;;;;;4838035;29;45664;-64
2022/11/22 09:13:45;;;;;;;2.33;1.10;;;20.30;43.20;;;;;;4828466;29;44939;-64
2022/11/22 09:16:12;;;;;;;1.55;0.90;;;20.40;43.10;;;;;;4821569;29;45491;-64
2022/11/22 09:18:38;;;;;;;2.07;1.00;;;20.60;43.00;;;;;;4828309;29;44974;-65
2022/11/22 09:21:08;;;;;;;1.57;0.90;;;20.70;42.90;;;;;;4829160;29;45263;-63
2022/11/22 09:23:33;;;;;;;1.35;1.05;;;20.80;42.70;;;;;;4825059;29;45152;-64
2022/11/22 09:26:01;;;;;;;2.90;1.13;;;20.90;42.60;;;;;;4838707;29;45302;-63
2022/11/22 09:28:27;;;;;;;1.27;0.77;;;21.00;42.50;;;;;;4828822;29;45583;-65
2022/11/22 09:31:20;;;;;;;1.15;0.90;;;21.10;42.40;;;;;;4820901;29;45671;-65
2022/11/22 09:33:46;;;;;;;1.38;1.10;;;21.30;42.40;;;;;;4829104;29;44959;-61
2022/11/22 09:36:12;;;;;;;1.87;0.90;;;21.40;42.20;;;;;;4831039;29;45223;-62
2022/11/22 09:38:38;;;;;;;2.17;0.90;;;21.50;42.20;;;;;;4812475;29;45895;-64
2022/11/22 09:41:15;;;;;;;1.33;0.93;;;21.50;42.00;;;;;;4823768;29;47012;-66
2022/11/22 09:44:09;;;;;;;0.85;0.60;;;21.70;42.00;;;;;;4823890;29;45677;-64
2022/11/22 09:46:57;;;;;;;1.10;0.60;;;21.80;41.80;;;;;;4824803;29;45109;-64
2022/11/22 09:49:26;;;;;;;1.33;0.98;;;21.90;41.70;;;;;;4812806;29;46261;-66
2022/11/22 09:52:12;;;;;;;1.15;0.77;;;22.00;41.60;;;;;;4837221;29;45163;-63
2022/11/22 09:54:48;;;;;;;1.42;0.88;;;22.10;41.50;;;;;;4827628;29;45579;-64
2022/11/22 09:57:30;;;;;;;1.10;0.90;;;22.20;41.40;;;;;;4826457;29;45487;-65
2022/11/22 10:00:15;;;;;;;1.00;0.80;;;22.30;41.30;;;;;;4808192;29;45448;-64
2022/11/22 10:02:42;;;;;;;1.00;0.73;;;22.40;41.20;;;;;;4843496;29;45476;-64
2022/11/22 10:05:20;;;;;;;1.45;0.85;;;22.50;41.20;;;;;;4826877;29;45434;-62
2022/11/22 10:07:49;;;;;;;1.27;0.73;;;22.50;41.00;;;;;;4810820;29;45550;-63
2022/11/22 10:10:17;;;;;;;1.03;0.77;;;22.60;41.00;;;;;;4824718;29;45279;-65
2022/11/22 10:12:48;;;;;;;1.17;0.87;;;22.60;40.80;;;;;;4811046;29;47186;-64
2022/11/22 10:15:28;;;;;;;1.25;0.80;;;22.80;40.80;;;;;;4825331;29;45544;-64
2022/11/22 10:18:10;;;;;;;1.10;0.90;;;22.80;40.70;;;;;;4824138;29;45225;-65
2022/11/22 10:20:38;;;;;;;1.50;0.82;;;22.90;40.60;;;;;;4823121;29;44721;-63
2022/11/22 10:23:06;;;;;;;1.10;0.73;;;23.00;40.50;;;;;;4808322;29;46853;-65
2022/11/22 10:25:38;;;;;;;1.15;0.77;;;23.00;40.40;;;;;;4823205;29;45536;-63
2022/11/22 10:28:32;;;;;;;2.15;0.90;;;23.10;40.40;;;;;;4823095;29;45378;-63
2022/11/22 10:31:42;;;;;;;1.00;0.60;;;23.20;40.30;;;;;;4822019;29;45082;-64
2022/11/22 10:34:14;;;;;;;1.02;0.65;;;23.30;40.20;;;;;;4846939;29;46346;-62
2022/11/22 10:36:48;;;;;;;1.17;0.70;;;23.40;40.80;;;;;;4827365;29;45473;-61
2022/11/22 10:39:25;;;;;;;1.20;0.90;;;23.40;40.10;;;;;;4823874;29;45343;-61
2022/11/22 10:42:04;;;;;;;1.08;0.85;;;23.50;40.00;;;;;;4822210;29;45785;-65
2022/11/22 10:44:52;;;;;;;0.93;0.70;;;23.50;40.00;;;;;;4822356;29;46857;-64
2022/11/22 10:47:31;;;;;;;1.05;0.70;;;23.60;40.00;;;;;;4834281;29;45322;-61
2022/11/22 10:50:11;;;;;;;1.45;0.90;;;23.70;39.90;;;;;;4823040;29;45255;-65
2022/11/22 10:52:44;;;;;;;1.80;0.65;;;23.70;39.80;;;;;;4824560;29;45463;-61
2022/11/22 10:55:40;;;;;;;0.95;0.73;;;23.80;39.80;;;;;;4837718;29;47191;-64
2022/11/22 10:58:27;;;;;;;1.50;0.90;;;23.90;39.70;;;;;;4843940;29;45251;-63
2022/11/22 11:00:58;;;;;;;1.27;0.68;;;23.90;39.60;;;;;;4832512;29;45188;-63
2022/11/22 11:03:47;;;;;;;1.07;0.70;;;24.00;39.60;;;;;;4821644;29;45423;-61
2022/11/22 11:06:38;;;;;;;1.25;0.65;;;24.10;39.60;;;;;;4815926;29;45325;-61
2022/11/22 11:09:22;;;;;;;1.52;0.80;;;24.10;39.50;;;;;;4823232;29;45276;-64
2022/11/22 11:11:49;;;;;;;1.17;0.80;;;24.10;39.60;;;;;;4796577;29;46446;-62
2022/11/22 11:14:29;;;;;;;1.70;0.80;;;24.10;39.40;;;;;;4793636;29;45723;-63
2022/11/22 11:16:54;;;;;;;1.20;0.77;;;24.10;39.40;;;;;;4820157;29;45462;-62
2022/11/22 11:19:23;;;;;;;1.00;0.50;;;24.10;39.40;;;;;;4826496;29;45198;-62
2022/11/22 11:22:20;;;;;;;0.67;0.57;;;24.10;39.40;;;;;;4821998;29;45299;-62
2022/11/22 11:24:46;;;;;;;1.63;0.63;;;24.10;39.40;;;;;;4817408;29;45370;-63
2022/11/22 11:27:11;;;;;;;1.63;0.60;;;24.10;39.30;;;;;;4825723;29;45115;-62
2022/11/22 11:29:45;;;;;;;1.10;0.60;;;24.10;39.30;;;;;;4847571;29;45356;-62
2022/11/22 11:32:15;;;;;;;1.40;0.60;;;24.10;39.30;;;;;;4814262;29;45549;-63
2022/11/22 11:34:46;;;;;;;0.80;0.63;;;24.10;39.20;;;;;;4840013;29;45151;-62
2022/11/22 11:37:21;;;;;;;1.00;0.50;;;24.10;39.20;;;;;;4822966;29;46029;-62
2022/11/22 11:39:46;;;;;;;0.80;0.60;;;24.10;39.20;;;;;;4828504;29;45425;-62
2022/11/22 11:42:26;;;;;;;0.77;0.60;;;24.10;39.20;;;;;;4824978;29;45632;-62
2022/11/22 11:44:52;;;;;;;0.95;0.60;;;24.10;39.30;;;;;;4822828;29;45522;-65
2022/11/22 11:47:29;;;;;;;0.80;0.60;;;24.10;39.30;;;;;;4837663;29;45402;-61
2022/11/22 11:49:55;;;;;;;0.73;0.60;;;24.20;39.30;;;;;;4828351;29;45039;-62
2022/11/22 11:52:21;;;;;;;1.07;0.57;;;24.20;39.20;;;;;;4820498;29;45392;-63
2022/11/22 11:54:52;;;;;;;0.80;0.60;;;24.30;39.90;;;;;;4823579;29;45280;-57
2022/11/22 11:57:28;;;;;;;0.90;0.57;;;24.30;39.30;;;;;;4826561;29;45899;-57
2022/11/22 11:59:54;;;;;;;1.45;0.60;;;24.30;39.20;;;;;;4816257;29;45563;-56
2022/11/22 12:02:24;;;;;;;1.13;0.60;;;24.30;39.20;;;;;;4822500;29;45111;-59
2022/11/22 12:04:51;;;;;;;0.68;0.50;;;24.40;39.40;;;;;;4827915;29;45211;-60
2022/11/22 12:07:18;;;;;;;0.80;0.50;;;24.30;39.50;;;;;;4846592;29;46188;-60
2022/11/22 12:09:46;;;;;;;1.35;0.80;;;24.30;39.40;;;;;;4824243;29;45361;-57
2022/11/22 12:12:49;;;;;;;0.60;0.60;;;24.40;39.50;;;;;;4823367;29;46672;-55
2022/11/22 12:15:29;;;;;;;2.08;0.73;;;24.40;39.50;;;;;;4825572;29;45316;-57
2022/11/22 12:17:56;;;;;;;1.23;0.80;;;24.40;39.40;;;;;;4836844;29;46160;-57
2022/11/22 12:20:48;;;;;;;1.20;0.65;;;24.40;39.40;;;;;;4834145;29;45338;-59
2022/11/22 12:23:31;;;;;;;1.05;0.60;;;24.40;39.40;;;;;;4839849;29;45261;-57
2022/11/22 12:25:56;;;;;;;0.85;0.60;;;24.40;39.40;;;;;;4827204;29;45829;-58
2022/11/22 12:28:23;;;;;;;1.37;0.50;;;24.40;39.50;;;;;;4825183;29;45977;-58
2022/11/22 12:31:26;;;;;;;1.02;0.70;;;24.40;39.50;;;;;;4824897;29;45254;-58
2022/11/22 12:34:05;;;;;;;2.33;0.70;;;24.40;39.50;;;;;;4823862;29;45422;-59
2022/11/22 12:36:54;;;;;;;0.97;0.40;;;24.50;39.60;;;;;;4833160;29;45140;-59
2022/11/22 12:39:23;;;;;;;1.20;0.53;;;24.40;39.50;;;;;;4827433;29;46404;-59
2022/11/22 12:41:50;;;;;;;1.20;0.73;;;24.50;39.60;;;;;;4809869;29;47723;-59
2022/11/22 12:44:18;;;;;;;1.02;0.60;;;24.40;39.50;;;;;;4826078;29;45536;-58
2022/11/22 12:46:46;;;;;;;1.20;0.50;;;24.50;39.60;;;;;;4832235;29;46049;-57
2022/11/22 12:49:26;;;;;;;1.25;0.50;;;24.40;39.60;;;;;;4846304;29;45576;-59
2022/11/22 12:51:55;;;;;;;1.17;0.60;;;24.50;39.70;;;;;;4832344;29;45258;-56
2022/11/22 12:54:26;;;;;;;1.13;0.60;;;24.50;39.70;;;;;;4806939;29;45737;-58
2022/11/22 12:56:54;;;;;;;1.10;0.60;;;24.50;39.70;;;;;;4824399;29;45380;-58
2022/11/22 12:59:30;;;;;;;1.30;0.50;;;24.50;39.70;;;;;;4831297;29;46438;-56
2022/11/22 13:02:16;;;;;;;1.60;0.60;;;24.50;39.70;;;;;;4817763;29;45574;-59
2022/11/22 13:04:49;;;;;;;0.98;0.50;;;24.50;39.80;;;;;;4819819;29;45604;-58
2022/11/22 13:07:23;;;;;;;0.90;0.40;;;24.50;39.70;;;;;;4819434;29;45882;-55
2022/11/22 13:09:54;;;;;;;1.35;0.40;;;24.50;39.70;;;;;;4822292;29;46057;-58
2022/11/22 13:12:25;;;;;;;0.90;0.53;;;24.50;39.80;;;;;;4824238;29;45254;-59
2022/11/22 13:14:53;;;;;;;0.80;0.60;;;24.50;39.80;;;;;;4820031;29;45210;-59
2022/11/22 13:17:20;;;;;;;0.93;0.60;;;24.60;39.80;;;;;;4823119;29;45727;-61
2022/11/22 13:19:49;;;;;;;0.60;0.43;;;24.50;39.80;;;;;;4830660;29;45986;-57
2022/11/22 13:22:32;;;;;;;1.10;0.60;;;24.60;39.80;;;;;;4822607;29;45287;-56
2022/11/22 13:25:07;;;;;;;0.80;0.50;;;24.60;39.80;;;;;;4823782;29;45226;-60
2022/11/22 13:27:34;;;;;;;0.50;0.40;;;24.60;40.40;;;;;;4821630;29;45109;-57
2022/11/22 13:30:00;;;;;;;0.57;0.40;;;24.60;39.80;;;;;;4821128;29;45918;-60
2022/11/22 13:32:30;;;;;;;1.07;0.50;;;24.60;39.80;;;;;;4824222;29;45385;-60
2022/11/22 13:35:02;;;;;;;0.60;0.47;;;24.60;39.80;;;;;;4837061;29;45476;-60
2022/11/22 13:37:28;;;;;;;0.63;0.40;;;24.60;39.80;;;;;;4837383;29;45356;-60
2022/11/22 13:39:54;;;;;;;1.10;0.50;;;24.60;39.80;;;;;;4833638;29;46316;-63
2022/11/22 13:42:22;;;;;;;0.60;0.40;;;24.60;39.80;;;;;;4827017;29;45667;-60
2022/11/22 13:44:55;;;;;;;0.90;0.47;;;24.60;39.80;;;;;;4821696;29;44664;-59
2022/11/22 13:47:23;;;;;;;1.30;0.60;;;24.60;39.90;;;;;;4842585;29;44791;-58
2022/11/22 13:49:50;;;;;;;1.10;0.43;;;24.60;39.80;;;;;;4839237;29;45920;-58
2022/11/22 13:52:15;;;;;;;0.85;0.57;;;24.60;39.90;;;;;;4818171;29;44761;-59
2022/11/22 13:54:51;;;;;;;0.90;0.50;;;24.60;39.90;;;;;;4843875;29;45311;-58
2022/11/22 13:57:36;;;;;;;0.80;0.57;;;24.60;39.90;;;;;;4835607;29;46173;-57
2022/11/22 14:00:11;;;;;;;0.85;0.43;;;24.70;40.00;;;;;;4824687;29;46238;-60
2022/11/22 14:02:46;;;;;;;0.50;0.50;;;24.70;39.90;;;;;;4846744;29;45123;-56
2022/11/22 14:05:30;;;;;;;0.85;0.60;;;24.70;39.90;;;;;;4828511;29;45162;-58
2022/11/22 14:07:56;;;;;;;0.60;0.50;;;24.70;39.90;;;;;;4838954;29;45149;-60
2022/11/22 14:10:41;;;;;;;1.48;0.50;;;24.70;40.00;;;;;;4827021;29;45946;-59
2022/11/22 14:13:31;;;;;;;1.50;0.50;;;24.70;40.00;;;;;;4828128;29;45265;-60
2022/11/22 14:16:31;;;;;;;0.95;0.60;;;24.70;39.90;;;;;;4826531;29;46571;-57
2022/11/22 14:19:25;;;;;;;1.67;0.70;;;24.70;40.00;;;;;;4837834;29;45511;-58
2022/11/22 14:22:01;;;;;;;1.20;0.50;;;24.70;39.90;;;;;;4820267;29;46073;-59
2022/11/22 14:24:36;;;;;;;1.10;0.52;;;24.70;40.00;;;;;;4827146;29;45324;-58
2022/11/22 14:27:29;;;;;;;1.00;0.60;;;24.70;40.00;;;;;;4824870;29;45387;-59
2022/11/22 14:30:02;;;;;;;0.70;0.60;;;24.80;40.00;;;;;;4839073;29;45214;-57
2022/11/22 14:32:50;;;;;;;0.50;0.50;;;24.70;40.00;;;;;;4821075;29;46104;-57
2022/11/22 14:35:20;;;;;;;0.60;0.50;;;24.80;40.00;;;;;;4850888;29;44686;-56
2022/11/22 14:38:00;;;;;;;1.67;0.50;;;24.80;40.10;;;;;;4827496;29;45292;-56
2022/11/22 14:40:34;;;;;;;0.93;0.45;;;24.80;40.00;;;;;;4826036;29;45232;-56
2022/11/22 14:43:21;;;;;;;0.80;0.50;;;24.80;40.00;;;;;;4810742;29;45484;-57
2022/11/22 14:45:49;;;;;;;3.50;0.65;;;24.80;40.10;;;;;;4814303;29;45228;-57
2022/11/22 14:48:19;;;;;;;0.60;0.50;;;24.80;40.00;;;;;;4828256;29;44819;-59
2022/11/22 14:50:57;;;;;;;1.10;0.50;;;24.80;40.60;;;;;;4819706;29;45593;-56
2022/11/22 14:53:43;;;;;;;0.40;0.40;;;24.80;40.00;;;;;;4829577;29;47236;-58
2022/11/22 14:56:22;;;;;;;0.80;0.40;;;24.80;40.10;;;;;;4826204;29;45411;-54
2022/11/22 14:59:13;;;;;;;0.50;0.50;;;24.80;40.00;;;;;;4823444;29;45297;-58
2022/11/22 15:01:51;;;;;;;0.38;0.30;;;24.80;40.00;;;;;;4840366;29;46212;-55
2022/11/22 15:04:34;;;;;;;0.65;0.52;;;24.80;40.00;;;;;;4824677;29;46039;-54
2022/11/22 15:07:37;;;;;;;1.05;0.50;;;24.80;40.10;;;;;;4821638;29;45245;-59
2022/11/22 15:10:24;;;;;;;0.50;0.40;;;24.80;40.10;;;;;;4821998;29;45810;-56
2022/11/22 15:13:27;;;;;;;0.60;0.38;;;24.80;40.10;;;;;;4829130;29;45535;-58
2022/11/22 15:15:53;;;;;;;0.50;0.47;;;24.80;40.10;;;;;;4823563;29;47149;-57
2022/11/22 15:18:23;;;;;;;0.65;0.50;;;24.80;40.10;;;;;;4833741;29;44743;-59
2022/11/22 15:20:49;;;;;;;0.70;0.50;;;24.80;40.10;;;;;;4820839;29;45284;-56
2022/11/22 15:23:22;;;;;;;1.00;0.50;;;24.80;40.10;;;;;;4828762;29;45500;-57
2022/11/22 15:25:49;;;;;;;0.95;0.43;;;24.80;40.10;;;;;;4837013;29;45228;-57
2022/11/22 15:28:21;;;;;;;0.35;0.32;;;24.80;40.10;;;;;;4825625;29;45210;-60
2022/11/22 15:30:48;;;;;;;0.60;0.40;;;24.80;40.10;;;;;;4822624;29;45195;-60
2022/11/22 15:33:25;;;;;;;0.47;0.47;;;24.80;40.20;;;;;;4842033;29;44968;-57
2022/11/22 15:36:10;;;;;;;1.90;0.60;;;24.80;40.20;;;;;;4838853;29;46197;-59
2022/11/22 15:38:39;;;;;;;0.67;0.50;;;24.90;40.20;;;;;;4843134;29;45159;-60
2022/11/22 15:41:05;;;;;;;0.85;0.50;;;24.90;40.20;;;;;;4825519;29;45173;-59
2022/11/22 15:43:30;;;;;;;0.80;0.40;;;24.90;40.20;;;;;;4828989;29;45576;-58
2022/11/22 15:45:56;;;;;;;0.97;0.40;;;24.90;40.20;;;;;;4831446;29;46157;-59
2022/11/22 15:48:28;;;;;;;0.70;0.50;;;24.90;40.20;;;;;;4829743;29;45224;-60
2022/11/22 15:51:09;;;;;;;0.40;0.30;;;25.00;40.20;;;;;;4821711;29;45272;-59
2022/11/22 15:53:35;;;;;;;0.60;0.50;;;25.00;40.10;;;;;;4823274;29;44907;-55
2022/11/22 15:56:25;;;;;;;0.40;0.40;;;25.00;40.00;;;;;;4827778;29;46890;-59
2022/11/22 15:58:51;;;;;;;0.57;0.40;;;25.00;40.00;;;;;;4826356;29;45677;-56
2022/11/22 16:01:17;;;;;;;0.63;0.40;;;25.00;40.00;;;;;;4826303;29;45253;-60
2022/11/22 16:03:46;;;;;;;2.03;0.50;;;25.10;40.10;;;;;;4824715;29;45453;-59
2022/11/22 16:06:13;;;;;;;0.50;0.43;;;25.10;40.10;;;;;;4805359;29;45365;-55
2022/11/22 16:08:47;;;;;;;0.60;0.50;;;25.10;40.10;;;;;;4826092;29;45249;-57
2022/11/22 16:11:18;;;;;;;0.70;0.43;;;25.10;40.10;;;;;;4822721;29;45388;-59
2022/11/22 16:13:44;;;;;;;0.70;0.32;;;25.10;40.10;;;;;;4813112;29;45153;-57
2022/11/22 16:16:09;;;;;;;0.83;0.50;;;25.10;40.10;;;;;;4819224;29;46175;-59
2022/11/22 16:18:35;;;;;;;0.37;0.37;;;25.10;40.10;;;;;;4841142;29;45356;-57
2022/11/22 16:21:16;;;;;;;0.77;0.40;;;25.10;40.10;;;;;;4836972;29;45213;-59
2022/11/22 16:23:45;;;;;;;1.23;0.40;;;25.10;40.10;;;;;;4820633;29;45553;-56
2022/11/22 16:26:18;;;;;;;1.05;0.50;;;25.10;40.10;;;;;;4837969;29;46100;-58
2022/11/22 16:28:49;;;;;;;0.40;0.40;;;25.10;40.10;;;;;;4825441;29;45178;-57
2022/11/22 16:31:26;;;;;;;0.93;0.53;;;25.10;40.10;;;;;;4840040;29;44900;-59
2022/11/22 16:33:52;;;;;;;0.88;0.50;;;25.10;40.10;;;;;;4837843;29;45514;-59
2022/11/22 16:36:18;;;;;;;1.25;0.63;;;25.10;40.10;;;;;;4819714;29;45421;-60
2022/11/22 16:38:44;;;;;;;0.52;0.40;;;25.10;40.10;;;;;;4841143;29;45549;-61
2022/11/22 16:41:17;;;;;;;0.40;0.40;;;25.10;40.10;;;;;;4842670;29;45349;-61
2022/11/22 16:43:42;;;;;;;0.55;0.50;;;25.10;40.10;;;;;;4818031;29;46472;-57
2022/11/22 16:46:11;;;;;;;0.85;0.40;;;25.10;40.10;;;;;;4840514;29;46168;-55
2022/11/22 16:48:36;;;;;;;1.00;0.70;;;25.10;40.20;;;;;;4816537;29;45166;-59
2022/11/22 16:51:04;;;;;;;0.90;0.50;;;25.00;40.10;;;;;;4831975;29;45632;-59
2022/11/22 16:53:43;;;;;;;0.57;0.40;;;24.90;40.10;;;;;;4833519;29;45400;-60
2022/11/22 16:56:26;;;;;;;0.93;0.60;;;24.80;40.20;;;;;;4817686;29;46121;-58
2022/11/22 16:58:53;;;;;;;1.33;0.40;;;24.80;40.40;;;;;;4821338;29;46099;-61
2022/11/22 17:01:20;;;;;;;0.50;0.40;;;24.70;40.50;;;;;;4831900;29;45806;-59
2022/11/22 17:03:47;;;;;;;1.20;0.50;;;24.60;40.50;;;;;;4822066;29;45391;-60
2022/11/22 17:06:15;;;;;;;0.70;0.40;;;24.50;40.70;;;;;;4804953;29;46230;-59
2022/11/22 17:08:40;;;;;;;0.98;0.50;;;24.40;40.80;;;;;;4840692;29;44982;-61
2022/11/22 17:11:08;;;;;;;0.80;0.60;;;24.40;41.00;;;;;;4840338;29;46108;-60
2022/11/22 17:13:33;;;;;;;0.70;0.43;;;24.30;41.00;;;;;;4838245;29;46233;-59
2022/11/22 17:15:59;;;;;;;0.90;0.60;;;24.20;41.10;;;;;;4846174;29;46183;-58
2022/11/22 17:18:24;;;;;;;0.57;0.50;;;24.10;41.20;;;;;;4841617;29;44958;-59
2022/11/22 17:20:50;;;;;;;0.87;0.60;;;24.00;41.30;;;;;;4832580;29;44944;-59